createdAt,value
2018-05-02T00:02:09.019Z,64.45
2018-05-02T00:04:36.707Z,64.28
2018-05-02T00:07:04.718Z,64.64
2018-05-02T00:09:32.505Z,64.72
2018-05-02T00:12:00.102Z,64.64
2018-05-02T00:14:27.687Z,63.91
2018-05-02T00:16:55.292Z,63.66
2018-05-02T00:19:22.976Z,63.17
2018-05-02T00:21:50.815Z,63.15
2018-05-02T00:24:18.618Z,63.38
2018-05-02T00:26:46.373Z,64.01
2018-05-02T00:29:14.072Z,63.90
2018-05-02T00:31:41.647Z,63.72
2018-05-02T00:34:09.315Z,64.47
2018-05-02T00:36:36.843Z,64.30
2018-05-02T00:39:04.495Z,63.89
2018-05-02T00:41:32.094Z,64.65
2018-05-02T00:43:59.640Z,64.98
2018-05-02T00:46:27.329Z,64.76
2018-05-02T00:49:07.064Z,65.27
2018-05-02T00:51:34.981Z,65.38
2018-05-02T00:54:02.623Z,65.21
2018-05-02T00:56:30.470Z,65.39
2018-05-02T00:58:58.391Z,65.78
2018-05-02T01:01:26.126Z,65.56
2018-05-02T01:03:53.767Z,65.65
2018-05-02T01:06:21.333Z,66.06
2018-05-02T01:08:49.211Z,66.03
2018-05-02T01:11:16.871Z,66.06
2018-05-02T01:13:44.484Z,65.83
2018-05-02T01:16:12.091Z,66.54
2018-05-02T01:18:39.737Z,66.62
2018-05-02T01:21:07.347Z,66.70
2018-05-02T01:23:35.028Z,66.80
2018-05-02T01:26:02.624Z,67.09
2018-05-02T01:28:30.192Z,67.46
2018-05-02T01:30:57.747Z,67.63
2018-05-02T01:33:25.436Z,67.75
2018-05-02T01:35:53.254Z,67.86
2018-05-02T01:38:20.829Z,68.21
2018-05-02T01:40:48.380Z,68.37
2018-05-02T01:43:16.135Z,68.44
2018-05-02T01:45:43.674Z,68.52
2018-05-02T01:48:11.451Z,68.90
2018-05-02T01:50:39.022Z,68.87
2018-05-02T01:53:06.737Z,69.02
2018-05-02T01:55:34.430Z,69.02
2018-05-02T01:58:01.994Z,69.24
2018-05-02T02:00:29.787Z,69.41
2018-05-02T02:02:57.454Z,69.51
2018-05-02T02:05:25.280Z,69.57
2018-05-02T02:07:52.862Z,69.70
2018-05-02T02:10:20.698Z,69.82
2018-05-02T02:12:48.279Z,69.99
2018-05-02T02:15:15.822Z,70.28
2018-05-02T02:17:43.431Z,70.52
2018-05-02T02:20:10.976Z,70.63
2018-05-02T02:22:38.660Z,70.63
2018-05-02T02:25:06.376Z,70.92
2018-05-02T02:27:33.939Z,70.98
2018-05-02T02:30:01.722Z,71.08
2018-05-02T02:32:29.487Z,71.14
2018-05-02T02:34:57.029Z,71.28
2018-05-02T02:37:24.586Z,71.50
2018-05-02T02:39:52.196Z,71.52
2018-05-02T02:42:19.749Z,71.90
2018-05-02T02:44:48.293Z,72.01
2018-05-02T02:47:16.010Z,72.12
2018-05-02T02:49:43.583Z,72.17
2018-05-02T02:52:11.275Z,72.35
2018-05-02T02:54:39.115Z,72.68
2018-05-02T02:57:06.852Z,73.10
2018-05-02T02:59:34.434Z,73.01
2018-05-02T03:02:03.499Z,73.12
2018-05-02T03:04:31.142Z,73.58
2018-05-02T03:06:58.774Z,73.50
2018-05-02T03:09:26.419Z,73.92
2018-05-02T03:11:58.843Z,74.03
2018-05-02T03:14:26.465Z,74.28
2018-05-02T03:16:54.182Z,74.80
2018-05-02T03:19:22.262Z,74.89
2018-05-02T03:21:50.120Z,75.01
2018-05-02T03:24:17.716Z,75.00
2018-05-02T03:26:45.289Z,75.26
2018-05-02T03:29:12.936Z,75.46
2018-05-02T03:31:40.481Z,75.89
2018-05-02T03:34:08.231Z,75.96
2018-05-02T03:36:35.927Z,76.12
2018-05-02T03:39:03.596Z,76.06
2018-05-02T03:41:31.179Z,76.52
2018-05-02T03:43:58.730Z,76.63
2018-05-02T03:46:26.528Z,76.49
2018-05-02T03:48:54.492Z,76.79
2018-05-02T03:51:22.145Z,77.11
2018-05-02T03:53:49.717Z,77.06
2018-05-02T03:56:17.305Z,77.29
2018-05-02T03:58:45.096Z,77.57
2018-05-02T04:01:24.830Z,77.61
2018-05-02T04:04:04.298Z,77.60
2018-05-02T04:09:39.234Z,77.93
2018-05-02T04:12:06.859Z,78.06
2018-05-02T04:14:34.463Z,78.13
2018-05-02T04:17:02.112Z,78.07
2018-05-02T04:19:29.790Z,78.17
2018-05-02T04:21:57.633Z,78.13
2018-05-02T04:24:25.695Z,78.13
2018-05-02T04:26:53.561Z,78.10
2018-05-02T04:29:21.162Z,78.30
2018-05-02T04:31:49.209Z,78.62
2018-05-02T04:34:16.764Z,78.64
2018-05-02T04:36:44.466Z,78.88
2018-05-02T04:39:12.260Z,78.96
2018-05-02T04:41:39.884Z,79.38
2018-05-02T04:44:07.702Z,79.46
2018-05-02T04:46:35.409Z,79.48
2018-05-02T04:49:03.080Z,79.49
2018-05-02T04:51:30.672Z,79.55
2018-05-02T04:53:58.507Z,79.52
2018-05-02T04:56:26.564Z,79.50
2018-05-02T04:58:54.420Z,79.53
2018-05-02T05:01:21.989Z,79.54
2018-05-02T05:03:49.638Z,79.73
2018-05-02T05:06:17.188Z,79.59
2018-05-02T05:08:45.288Z,79.90
2018-05-02T05:11:12.923Z,79.62
2018-05-02T05:13:40.712Z,79.51
2018-05-02T05:16:08.360Z,79.64
2018-05-02T05:18:36.194Z,79.40
2018-05-02T05:21:03.835Z,79.53
2018-05-02T05:23:31.472Z,79.42
2018-05-02T05:25:59.262Z,79.22
2018-05-02T05:28:27.070Z,79.15
2018-05-02T05:30:54.790Z,79.28
2018-05-02T05:33:22.383Z,79.00
2018-05-02T05:35:50.110Z,78.98
2018-05-02T05:38:17.946Z,79.33
2018-05-02T05:40:45.736Z,78.76
2018-05-02T05:43:13.609Z,78.86
2018-05-02T05:45:41.195Z,78.87
2018-05-02T05:48:09.278Z,79.37
2018-05-02T05:50:36.913Z,79.22
2018-05-02T05:53:04.561Z,78.98
2018-05-02T05:55:32.269Z,78.96
2018-05-02T05:57:59.943Z,79.28
2018-05-02T06:00:27.518Z,79.53
2018-05-02T06:02:55.347Z,79.05
2018-05-02T06:05:24.224Z,79.40
2018-05-02T06:07:51.809Z,79.05
2018-05-02T06:10:19.889Z,78.79
2018-05-02T06:12:47.524Z,78.52
2018-05-02T06:15:15.078Z,77.50
2018-05-02T06:17:42.897Z,77.27
2018-05-02T06:20:10.529Z,77.34
2018-05-02T06:22:38.517Z,76.90
2018-05-02T06:25:06.099Z,77.01
2018-05-02T06:27:33.697Z,77.26
2018-05-02T06:30:01.339Z,75.84
2018-05-02T06:32:28.906Z,75.13
2018-05-02T06:34:57.324Z,75.26
2018-05-02T06:37:25.028Z,75.58
2018-05-02T06:39:52.967Z,74.87
2018-05-02T06:42:21.691Z,73.96
2018-05-02T06:44:49.444Z,73.34
2018-05-02T06:47:17.327Z,73.66
2018-05-02T06:49:44.875Z,74.56
2018-05-02T06:52:12.921Z,74.28
2018-05-02T06:54:40.778Z,74.08
2018-05-02T06:57:08.690Z,73.79
2018-05-02T06:59:36.562Z,73.83
2018-05-02T07:02:04.180Z,74.16
2018-05-02T07:04:32.177Z,73.58
2018-05-02T07:06:59.757Z,73.09
2018-05-02T07:09:27.375Z,72.88
2018-05-02T07:11:55.065Z,72.33
2018-05-02T07:14:22.728Z,72.56
2018-05-02T07:16:50.286Z,73.09
2018-05-02T07:19:18.113Z,72.47
2018-05-02T07:21:45.751Z,72.62
2018-05-02T07:24:13.684Z,72.88
2018-05-02T07:26:41.239Z,71.36
2018-05-02T07:29:08.784Z,69.80
2018-05-02T07:31:36.367Z,70.77
2018-05-02T07:34:03.928Z,69.92
2018-05-02T07:36:31.502Z,71.44
2018-05-02T07:38:59.342Z,69.92
2018-05-02T07:41:26.965Z,69.49
2018-05-02T07:43:54.535Z,69.95
2018-05-02T07:46:22.818Z,68.25
2018-05-02T07:48:50.533Z,67.62
2018-05-02T07:51:18.103Z,65.88
2018-05-02T07:53:45.776Z,65.78
2018-05-02T07:56:13.589Z,66.50
2018-05-02T07:58:41.156Z,64.30
2018-05-02T08:01:08.746Z,67.53
2018-05-02T08:03:36.300Z,65.29
2018-05-02T08:06:03.909Z,64.95
2018-05-02T08:08:31.495Z,65.53
2018-05-02T08:10:59.082Z,63.24
2018-05-02T08:13:26.670Z,65.21
2018-05-02T08:15:54.466Z,65.93
2018-05-02T08:18:22.554Z,62.04
2018-05-02T08:20:50.355Z,63.83
2018-05-02T08:23:17.979Z,60.49
2018-05-02T08:25:45.627Z,63.98
2018-05-02T08:28:13.557Z,64.10
2018-05-02T08:30:41.107Z,63.77
2018-05-02T08:33:08.655Z,62.38
2018-05-02T08:35:36.471Z,62.07
2018-05-02T08:38:04.090Z,62.42
2018-05-02T08:40:32.032Z,61.67
2018-05-02T08:42:59.592Z,58.86
2018-05-02T08:45:27.394Z,59.64
2018-05-02T08:47:55.227Z,60.64
2018-05-02T08:50:22.887Z,59.00
2018-05-02T08:52:50.494Z,59.81
2018-05-02T08:55:18.126Z,58.18
2018-05-02T08:57:45.758Z,59.78
2018-05-02T09:00:13.969Z,58.61
2018-05-02T09:02:41.523Z,56.21
2018-05-02T09:05:09.079Z,56.46
2018-05-02T09:07:36.656Z,55.81
2018-05-02T09:10:04.584Z,55.99
2018-05-02T09:12:32.214Z,57.49
2018-05-02T09:14:59.766Z,54.01
2018-05-02T09:17:27.346Z,55.36
2018-05-02T09:19:54.925Z,55.20
2018-05-02T09:22:22.753Z,53.57
2018-05-02T09:24:50.582Z,56.35
2018-05-02T09:27:18.469Z,52.08
2018-05-02T09:29:46.096Z,53.25
2018-05-02T09:32:13.699Z,53.21
2018-05-02T09:34:41.295Z,53.35
2018-05-02T09:37:08.956Z,50.50
2018-05-02T09:39:36.577Z,51.99
2018-05-02T09:42:04.167Z,48.16
2018-05-02T09:44:31.952Z,48.93
2018-05-02T09:46:59.732Z,47.72
2018-05-02T09:49:27.660Z,48.78
2018-05-02T09:51:55.222Z,50.28
2018-05-02T09:54:22.808Z,50.32
2018-05-02T09:56:50.433Z,48.83
2018-05-02T09:59:18.013Z,46.80
2018-05-02T10:01:45.783Z,45.24
2018-05-02T10:04:13.405Z,46.08
2018-05-02T10:06:40.961Z,47.49
2018-05-02T10:09:08.561Z,45.17
2018-05-02T10:11:36.108Z,46.92
2018-05-02T10:14:03.669Z,44.05
2018-05-02T10:16:31.252Z,46.38
2018-05-02T10:18:59.041Z,44.12
2018-05-02T10:21:26.682Z,45.51
2018-05-02T10:23:54.236Z,45.18
2018-05-02T10:26:22.154Z,43.45
2018-05-02T10:28:49.769Z,44.00
2018-05-02T10:31:17.545Z,44.29
2018-05-02T10:33:45.522Z,43.54
2018-05-02T10:36:13.143Z,43.91
2018-05-02T10:38:41.009Z,43.07
2018-05-02T10:41:08.653Z,43.77
2018-05-02T10:43:36.218Z,44.34
2018-05-02T10:46:03.869Z,47.04
2018-05-02T10:48:31.423Z,43.06
2018-05-02T10:50:59.011Z,43.05
2018-05-02T10:53:26.613Z,44.19
2018-05-02T10:55:54.220Z,44.77
2018-05-02T10:58:21.837Z,42.01
2018-05-02T11:00:49.807Z,41.91
2018-05-02T11:03:17.486Z,43.47
2018-05-02T11:05:45.047Z,43.11
2018-05-02T11:08:12.601Z,42.57
2018-05-02T11:10:40.514Z,43.46
2018-05-02T11:13:08.311Z,42.05
2018-05-02T11:15:35.860Z,41.85
2018-05-02T11:18:03.444Z,43.26
2018-05-02T11:20:31.014Z,42.20
2018-05-02T11:22:58.697Z,43.10
2018-05-02T11:25:26.515Z,41.93
2018-05-02T11:27:54.113Z,42.36
2018-05-02T11:30:21.912Z,40.52
2018-05-02T11:32:49.597Z,39.99
2018-05-02T11:35:17.171Z,39.31
2018-05-02T11:37:44.820Z,37.50
2018-05-02T11:40:12.426Z,39.44
2018-05-02T11:42:39.966Z,40.54
2018-05-02T11:45:07.760Z,40.34
2018-05-02T11:47:35.339Z,39.38
2018-05-02T11:50:02.958Z,40.12
2018-05-02T11:52:30.591Z,39.74
2018-05-02T11:54:58.141Z,38.45
2018-05-02T11:57:25.827Z,37.04
2018-05-02T11:59:53.387Z,37.81
2018-05-02T12:02:20.943Z,38.71
2018-05-02T12:04:48.528Z,40.13
2018-05-02T12:07:16.325Z,40.30
2018-05-02T12:09:43.933Z,37.35
2018-05-02T12:12:11.499Z,37.68
2018-05-02T12:14:39.128Z,37.87
2018-05-02T12:17:06.787Z,35.95
2018-05-02T12:19:34.376Z,34.45
2018-05-02T12:22:02.184Z,36.57
2018-05-02T12:24:29.752Z,38.30
2018-05-02T12:26:57.326Z,35.78
2018-05-02T12:29:24.973Z,36.96
2018-05-02T12:31:52.868Z,36.41
2018-05-02T12:34:20.448Z,35.70
2018-05-02T12:36:47.997Z,35.92
2018-05-02T12:39:15.852Z,38.89
2018-05-02T12:41:43.454Z,37.48
2018-05-02T12:44:11.007Z,35.88
2018-05-02T12:46:38.646Z,36.95
2018-05-02T12:49:06.166Z,35.86
2018-05-02T12:51:33.711Z,36.39
2018-05-02T12:54:01.327Z,35.88
2018-05-02T12:56:28.877Z,35.87
2018-05-02T12:58:56.457Z,33.18
2018-05-02T13:01:24.352Z,35.43
2018-05-02T13:03:51.942Z,34.95
2018-05-02T13:06:19.882Z,32.98
2018-05-02T13:08:47.430Z,33.80
2018-05-02T13:11:14.974Z,32.14
2018-05-02T13:13:42.650Z,33.42
2018-05-02T13:16:10.199Z,34.10
2018-05-02T13:18:37.994Z,32.28
2018-05-02T13:21:05.635Z,33.01
2018-05-02T13:23:33.151Z,34.65
2018-05-02T13:26:00.872Z,34.04
2018-05-02T13:28:28.652Z,32.01
2018-05-02T13:30:56.341Z,33.59
2018-05-02T13:33:23.893Z,32.21
2018-05-02T13:35:51.677Z,34.28
2018-05-02T13:38:19.251Z,33.49
2018-05-02T13:40:46.803Z,31.79
2018-05-02T13:43:14.405Z,31.92
2018-05-02T13:45:41.955Z,32.41
2018-05-02T13:48:09.742Z,33.14
2018-05-02T13:50:37.391Z,32.27
2018-05-02T13:53:05.264Z,31.61
2018-05-02T13:55:32.838Z,32.17
2018-05-02T13:58:00.456Z,31.83
2018-05-02T14:00:28.003Z,32.16
2018-05-02T14:02:55.547Z,34.13
2018-05-02T14:05:23.357Z,32.51
2018-05-02T14:07:51.105Z,32.63
2018-05-02T14:10:18.713Z,31.27
2018-05-02T14:12:46.330Z,31.86
2018-05-02T14:15:13.977Z,32.50
2018-05-02T14:17:41.595Z,31.00
2018-05-02T14:20:09.174Z,31.17
2018-05-02T14:22:36.729Z,31.03
2018-05-02T14:25:04.334Z,31.04
2018-05-02T14:27:31.931Z,31.21
2018-05-02T14:29:59.722Z,30.38
2018-05-02T14:32:27.433Z,29.77
2018-05-02T14:34:55.059Z,30.82
2018-05-02T14:37:22.612Z,31.66
2018-05-02T14:39:50.178Z,32.34
2018-05-02T14:42:18.198Z,33.02
2018-05-02T14:44:45.817Z,32.36
2018-05-02T14:47:13.365Z,31.35
2018-05-02T14:49:41.016Z,32.17
2018-05-02T14:52:08.562Z,31.43
2018-05-02T14:54:36.193Z,32.07
2018-05-02T14:57:03.967Z,32.52
2018-05-02T14:59:31.610Z,32.48
2018-05-02T15:01:59.172Z,31.89
2018-05-02T15:04:26.953Z,31.75
2018-05-02T15:06:54.491Z,31.17
2018-05-02T15:09:22.132Z,30.74
2018-05-02T15:11:50.511Z,31.31
2018-05-02T15:14:18.055Z,31.67
2018-05-02T15:16:45.597Z,31.14
2018-05-02T15:19:13.242Z,31.07
2018-05-02T15:21:40.809Z,31.23
2018-05-02T15:24:08.435Z,31.61
2018-05-02T15:26:36.068Z,30.21
2018-05-02T15:29:03.631Z,30.95
2018-05-02T15:31:31.185Z,31.76
2018-05-02T15:33:58.764Z,33.44
2018-05-02T15:36:26.315Z,31.66
2018-05-02T15:38:53.963Z,32.42
2018-05-02T15:41:21.590Z,32.44
2018-05-02T15:43:49.669Z,31.23
2018-05-02T15:46:17.236Z,30.14
2018-05-02T15:48:44.812Z,31.97
2018-05-02T15:51:12.402Z,31.66
2018-05-02T15:53:39.980Z,32.13
2018-05-02T15:56:07.626Z,32.72
2018-05-02T15:58:35.271Z,32.42
2018-05-02T16:01:02.850Z,32.32
2018-05-02T16:03:30.471Z,32.26
2018-05-02T16:05:58.051Z,31.62
2018-05-02T16:08:25.634Z,32.92
2018-05-02T16:10:53.430Z,34.22
2018-05-02T16:13:21.034Z,33.59
2018-05-02T16:15:48.591Z,33.40
2018-05-02T16:18:16.156Z,34.94
2018-05-02T16:20:44.170Z,34.07
2018-05-02T16:23:11.832Z,33.78
2018-05-02T16:25:39.462Z,34.59
2018-05-02T16:28:07.066Z,35.62
2018-05-02T16:30:34.627Z,35.71
2018-05-02T16:33:02.435Z,37.12
2018-05-02T16:35:30.131Z,36.41
2018-05-02T16:37:57.692Z,35.88
2018-05-02T16:40:25.235Z,36.74
2018-05-02T16:42:52.841Z,36.55
2018-05-02T16:45:20.389Z,35.54
2018-05-02T16:47:48.207Z,35.77
2018-05-02T16:50:16.751Z,36.08
2018-05-02T16:52:44.367Z,35.87
2018-05-02T16:55:11.929Z,35.83
2018-05-02T16:57:39.611Z,37.29
2018-05-02T17:00:07.169Z,36.37
2018-05-02T17:02:34.721Z,37.64
2018-05-02T17:05:02.315Z,37.91
2018-05-02T17:07:29.937Z,38.07
2018-05-02T17:09:57.755Z,38.69
2018-05-02T17:12:25.301Z,38.48
2018-05-02T17:14:52.979Z,38.54
2018-05-02T17:17:20.538Z,38.64
2018-05-02T17:19:48.091Z,39.25
2018-05-02T17:22:15.697Z,39.60
2018-05-02T17:24:43.264Z,37.88
2018-05-02T17:27:10.948Z,38.74
2018-05-02T17:29:38.504Z,38.88
2018-05-02T17:32:06.070Z,39.34
2018-05-02T17:34:33.840Z,40.17
2018-05-02T17:37:01.814Z,41.25
2018-05-02T17:39:29.371Z,40.84
2018-05-02T17:41:57.052Z,41.51
2018-05-02T17:44:24.550Z,41.75
2018-05-02T17:46:52.098Z,41.85
2018-05-02T17:49:20.121Z,42.14
2018-05-02T17:51:47.668Z,42.12
2018-05-02T17:54:15.222Z,42.35
2018-05-02T17:56:42.802Z,42.54
2018-05-02T17:59:10.388Z,42.64
2018-05-02T18:01:37.972Z,42.94
2018-05-02T18:04:05.584Z,43.01
2018-05-02T18:06:33.167Z,43.15
2018-05-02T18:09:00.715Z,43.41
2018-05-02T18:11:28.328Z,43.09
2018-05-02T18:14:01.905Z,43.43
2018-05-02T18:16:29.588Z,43.87
2018-05-02T18:18:57.147Z,44.08
2018-05-02T18:21:24.748Z,44.23
2018-05-02T18:23:52.329Z,44.43
2018-05-02T18:26:19.946Z,44.71
2018-05-02T18:28:47.521Z,44.99
2018-05-02T18:31:15.307Z,45.45
2018-05-02T18:33:42.915Z,45.75
2018-05-02T18:36:10.505Z,45.90
2018-05-02T18:38:38.054Z,46.09
2018-05-02T18:41:05.637Z,46.22
2018-05-02T18:43:33.191Z,46.21
2018-05-02T18:46:00.842Z,46.43
2018-05-02T18:48:28.399Z,46.57
2018-05-02T18:50:56.244Z,46.80
2018-05-02T18:53:23.809Z,47.08
2018-05-02T18:55:51.399Z,47.35
2018-05-02T18:58:19.230Z,47.59
2018-05-02T19:00:46.782Z,47.92
2018-05-02T19:03:14.331Z,48.21
2018-05-02T19:05:42.004Z,48.22
2018-05-02T19:08:09.546Z,48.23
2018-05-02T19:10:37.191Z,48.51
2018-05-02T19:13:04.874Z,48.57
2018-05-02T19:15:32.462Z,48.18
2018-05-02T19:18:05.673Z,48.13
2018-05-02T19:20:36.126Z,48.28
2018-05-02T19:23:03.711Z,48.68
2018-05-02T19:25:36.840Z,49.08
2018-05-02T19:28:04.771Z,49.44
2018-05-02T19:30:32.319Z,49.90
2018-05-02T19:33:05.411Z,50.19
2018-05-02T19:35:33.091Z,50.32
2018-05-02T19:38:00.623Z,50.63
2018-05-02T19:40:33.669Z,50.91
2018-05-02T19:43:06.796Z,51.26
2018-05-02T19:45:34.770Z,51.56
2018-05-02T19:48:02.311Z,51.91
2018-05-02T19:50:29.935Z,52.20
2018-05-02T19:52:57.844Z,52.11
2018-05-02T19:55:25.388Z,51.95
2018-05-02T19:57:52.932Z,51.93
2018-05-02T20:00:25.975Z,52.22
2018-05-02T20:02:59.236Z,52.65
2018-05-02T20:05:26.815Z,52.60
2018-05-02T20:07:54.607Z,52.96
2018-05-02T20:10:28.413Z,53.25
2018-05-02T20:13:02.111Z,53.39
2018-05-02T20:15:29.814Z,53.74
2018-05-02T20:17:57.590Z,54.02
2018-05-02T20:20:25.156Z,54.24
2018-05-02T20:22:52.835Z,54.40
2018-05-02T20:25:20.442Z,54.63
2018-05-02T20:27:48.090Z,54.93
2018-05-02T20:30:15.671Z,55.16
2018-05-02T20:32:43.214Z,55.74
2018-05-02T20:35:10.787Z,56.13
2018-05-02T20:37:38.335Z,56.36
2018-05-02T20:40:06.319Z,56.43
2018-05-02T20:42:33.886Z,56.35
2018-05-02T20:45:01.431Z,56.41
2018-05-02T20:47:29.035Z,56.57
2018-05-02T20:49:56.585Z,56.72
2018-05-02T20:52:24.575Z,56.92
2018-05-02T20:54:52.439Z,57.53
2018-05-02T20:57:19.958Z,57.45
2018-05-02T20:59:47.552Z,57.77
2018-05-02T21:02:15.111Z,58.07
2018-05-02T21:04:42.962Z,58.44
2018-05-02T21:07:10.540Z,58.61
2018-05-02T21:09:38.651Z,59.16
2018-05-02T21:12:06.216Z,59.56
2018-05-02T21:14:33.876Z,59.81
2018-05-02T21:17:01.817Z,59.52
2018-05-02T21:19:29.365Z,59.13
2018-05-02T21:21:56.906Z,59.37
2018-05-02T21:24:24.900Z,57.88
2018-05-02T21:26:52.467Z,57.92
2018-05-02T21:29:20.012Z,58.39
2018-05-02T21:31:47.625Z,58.68
2018-05-02T21:34:15.410Z,58.21
2018-05-02T21:36:43.039Z,58.01
2018-05-02T21:39:10.986Z,58.13
2018-05-02T21:41:38.531Z,58.25
2018-05-02T21:44:06.093Z,57.75
2018-05-02T21:46:33.661Z,57.86
2018-05-02T21:49:01.287Z,58.15
2018-05-02T21:51:28.908Z,58.00
2018-05-02T21:53:56.479Z,57.95
2018-05-02T21:56:24.080Z,57.90
2018-05-02T21:58:51.735Z,57.67
2018-05-02T22:01:19.709Z,57.67
2018-05-02T22:03:47.418Z,57.79
2018-05-02T22:06:14.999Z,57.88
2018-05-02T22:08:42.873Z,58.19
2018-05-02T22:11:10.688Z,58.69
2018-05-02T22:13:38.756Z,58.84
2018-05-02T22:16:06.925Z,58.72
2018-05-02T22:18:34.966Z,58.60
2018-05-02T22:21:02.960Z,58.68
2018-05-02T22:23:30.830Z,58.53
2018-05-02T22:25:58.999Z,58.56
2018-05-02T22:28:26.587Z,58.74
2018-05-02T22:30:54.374Z,58.80
2018-05-02T22:33:22.332Z,58.38
2018-05-02T22:35:50.140Z,58.16
2018-05-02T22:38:17.842Z,58.42
2018-05-02T22:40:45.630Z,59.16
2018-05-02T22:43:13.290Z,59.58
2018-05-02T22:45:40.886Z,59.36
2018-05-02T22:48:08.440Z,59.35
2018-05-02T22:50:35.997Z,59.75
2018-05-02T22:53:03.584Z,59.73
2018-05-02T22:55:31.210Z,60.05
2018-05-02T22:57:59.250Z,60.42
2018-05-02T23:00:26.808Z,60.92
2018-05-02T23:02:54.355Z,61.26
2018-05-02T23:05:22.012Z,61.29
2018-05-02T23:07:49.873Z,61.30
2018-05-02T23:10:17.427Z,61.51
2018-05-02T23:12:45.252Z,62.34
2018-05-02T23:15:13.847Z,62.50
2018-05-02T23:17:41.393Z,62.56
2018-05-02T23:20:09.046Z,62.79
2018-05-02T23:22:36.743Z,63.75
2018-05-02T23:25:04.309Z,63.54
2018-05-02T23:27:31.894Z,64.30
2018-05-02T23:29:59.462Z,64.38
2018-05-02T23:32:27.093Z,64.83
2018-05-02T23:34:54.692Z,65.47
2018-05-02T23:37:22.244Z,65.64
2018-05-02T23:39:49.800Z,66.14
2018-05-02T23:42:17.399Z,66.15
2018-05-02T23:44:44.966Z,66.70
2018-05-02T23:47:12.732Z,66.53
2018-05-02T23:49:40.349Z,66.78
2018-05-02T23:52:07.908Z,67.84
2018-05-02T23:54:35.509Z,69.04
2018-05-02T23:57:03.091Z,69.58
2018-05-02T23:59:30.778Z,69.42
